createdAt,value
2018-04-30T00:00:07.305Z,12.26
2018-04-30T00:01:07.273Z,12.26
2018-04-30T00:02:07.252Z,12.34
2018-04-30T00:03:07.230Z,12.34
2018-04-30T00:04:07.209Z,12.26
2018-04-30T00:05:07.186Z,12.38
2018-04-30T00:06:07.165Z,12.34
2018-04-30T00:07:07.145Z,12.38
2018-04-30T00:08:07.122Z,12.41
2018-04-30T00:09:07.100Z,12.44
2018-04-30T00:10:07.084Z,12.23
2018-04-30T00:11:07.057Z,12.37
2018-04-30T00:12:07.034Z,12.34
2018-04-30T00:13:07.013Z,12.29
2018-04-30T00:14:06.992Z,12.27
2018-04-30T00:15:06.970Z,12.34
2018-04-30T00:16:06.948Z,12.29
2018-04-30T00:17:06.925Z,12.26
2018-04-30T00:18:06.904Z,12.19
2018-04-30T00:19:06.884Z,12.11
2018-04-30T00:20:06.860Z,12.15
2018-04-30T00:21:06.838Z,12.08
2018-04-30T00:22:06.816Z,12.15
2018-04-30T00:23:06.794Z,12.12
2018-04-30T00:24:06.773Z,12.11
2018-04-30T00:25:06.751Z,12.04
2018-04-30T00:26:06.729Z,12.06
2018-04-30T00:27:06.707Z,12.02
2018-04-30T00:28:06.687Z,12.06
2018-04-30T00:29:06.665Z,11.99
2018-04-30T00:30:06.643Z,12.01
2018-04-30T00:31:06.621Z,11.87
2018-04-30T00:32:06.600Z,11.72
2018-04-30T00:33:06.577Z,11.71
2018-04-30T00:34:06.556Z,11.75
2018-04-30T00:35:06.535Z,11.59
2018-04-30T00:36:06.512Z,11.61
2018-04-30T00:37:06.489Z,11.57
2018-04-30T00:38:06.469Z,11.50
2018-04-30T00:39:06.446Z,11.53
2018-04-30T00:40:06.424Z,11.49
2018-04-30T00:41:06.402Z,11.44
2018-04-30T00:42:06.379Z,11.39
2018-04-30T00:43:06.357Z,11.39
2018-04-30T00:44:06.335Z,11.39
2018-04-30T00:45:06.314Z,11.39
2018-04-30T00:46:06.299Z,11.38
2018-04-30T00:47:06.270Z,11.39
2018-04-30T00:48:06.248Z,11.32
2018-04-30T00:49:06.224Z,11.35
2018-04-30T00:50:06.209Z,11.35
2018-04-30T00:51:06.182Z,11.32
2018-04-30T00:52:06.164Z,11.34
2018-04-30T00:53:06.136Z,11.31
2018-04-30T00:54:06.114Z,11.29
2018-04-30T00:55:06.098Z,11.21
2018-04-30T00:56:06.070Z,11.09
2018-04-30T00:57:06.048Z,11.13
2018-04-30T00:58:06.026Z,11.17
2018-04-30T00:59:06.004Z,11.11
2018-04-30T01:00:05.981Z,11.13
2018-04-30T01:01:05.959Z,11.07
2018-04-30T01:02:05.937Z,11.10
2018-04-30T01:03:05.915Z,11.13
2018-04-30T01:04:05.894Z,11.07
2018-04-30T01:05:05.869Z,10.96
2018-04-30T01:06:05.847Z,10.99
2018-04-30T01:07:05.826Z,10.95
2018-04-30T01:08:05.805Z,10.91
2018-04-30T01:09:05.781Z,10.89
2018-04-30T01:10:05.760Z,10.94
2018-04-30T01:11:05.738Z,10.98
2018-04-30T01:12:05.719Z,11.09
2018-04-30T01:13:05.692Z,11.09
2018-04-30T01:14:05.670Z,11.14
2018-04-30T01:15:05.649Z,11.19
2018-04-30T01:16:07.128Z,11.20
2018-04-30T01:17:05.602Z,11.14
2018-04-30T01:18:05.580Z,11.16
2018-04-30T01:19:05.572Z,11.06
2018-04-30T01:20:05.539Z,10.92
2018-04-30T01:21:05.514Z,10.73
2018-04-30T01:22:06.245Z,10.73
2018-04-30T01:23:05.471Z,10.60
2018-04-30T01:24:05.448Z,10.63
2018-04-30T01:25:05.427Z,10.52
2018-04-30T01:26:05.405Z,10.36
2018-04-30T01:27:05.383Z,10.26
2018-04-30T01:28:05.359Z,10.24
2018-04-30T01:29:05.340Z,10.15
2018-04-30T01:30:05.315Z,10.14
2018-04-30T01:31:05.293Z,10.12
2018-04-30T01:32:05.273Z,10.00
2018-04-30T01:33:05.998Z,9.75
2018-04-30T01:34:05.225Z,9.68
2018-04-30T01:35:05.203Z,9.53
2018-04-30T01:36:05.181Z,9.53
2018-04-30T01:37:05.157Z,9.57
2018-04-30T01:38:05.136Z,9.53
2018-04-30T01:39:05.111Z,9.52
2018-04-30T01:40:05.090Z,9.57
2018-04-30T01:41:05.068Z,9.43
2018-04-30T01:42:05.043Z,9.53
2018-04-30T01:43:05.020Z,9.49
2018-04-30T01:44:04.998Z,9.66
2018-04-30T01:45:04.974Z,9.60
2018-04-30T01:46:04.953Z,9.66
2018-04-30T01:47:04.927Z,9.71
2018-04-30T01:48:04.905Z,9.71
2018-04-30T01:49:04.880Z,9.93
2018-04-30T01:50:04.858Z,10.10
2018-04-30T01:51:04.835Z,9.96
2018-04-30T01:52:04.812Z,9.94
2018-04-30T01:53:04.789Z,9.89
2018-04-30T01:54:04.765Z,9.81
2018-04-30T01:55:04.743Z,9.76
2018-04-30T01:56:04.719Z,9.82
2018-04-30T01:57:04.695Z,9.83
2018-04-30T01:58:04.673Z,9.68
2018-04-30T01:59:05.401Z,9.78
2018-04-30T02:00:04.628Z,9.71
2018-04-30T02:01:04.612Z,9.76
2018-04-30T02:02:04.580Z,9.60
2018-04-30T02:03:04.558Z,9.58
2018-04-30T02:04:04.537Z,9.64
2018-04-30T02:05:04.513Z,9.76
2018-04-30T02:06:04.490Z,9.66
2018-04-30T02:07:04.468Z,9.58
2018-04-30T02:08:04.444Z,9.53
2018-04-30T02:09:04.420Z,9.57
2018-04-30T02:10:04.398Z,9.34
2018-04-30T02:11:04.375Z,9.43
2018-04-30T02:12:04.353Z,9.60
2018-04-30T02:13:04.328Z,9.63
2018-04-30T02:14:04.307Z,9.63
2018-04-30T02:15:04.286Z,9.45
2018-04-30T02:16:04.263Z,9.53
2018-04-30T02:17:04.239Z,9.46
2018-04-30T02:18:04.216Z,9.45
2018-04-30T02:19:04.195Z,9.34
2018-04-30T02:20:04.172Z,9.25
2018-04-30T02:21:04.157Z,9.66
2018-04-30T02:22:04.125Z,9.91
2018-04-30T02:23:04.111Z,9.93
2018-04-30T02:24:04.080Z,9.91
2018-04-30T02:25:04.060Z,9.85
2018-04-30T02:26:04.036Z,9.67
2018-04-30T02:27:04.011Z,9.61
2018-04-30T02:28:03.989Z,9.58
2018-04-30T02:29:03.966Z,9.43
2018-04-30T02:30:03.942Z,9.30
2018-04-30T02:31:03.919Z,9.75
2018-04-30T02:32:03.897Z,9.53
2018-04-30T02:33:03.874Z,9.58
2018-04-30T02:34:03.851Z,9.58
2018-04-30T02:35:03.830Z,9.45
2018-04-30T02:36:03.808Z,9.38
2018-04-30T02:37:03.786Z,9.61
2018-04-30T02:38:03.761Z,9.43
2018-04-30T02:39:03.738Z,9.18
2018-04-30T02:40:03.716Z,9.30
2018-04-30T02:41:03.693Z,9.60
2018-04-30T02:42:03.669Z,9.56
2018-04-30T02:43:03.649Z,9.43
2018-04-30T02:44:03.622Z,9.45
2018-04-30T02:45:03.598Z,9.32
2018-04-30T02:46:03.576Z,9.32
2018-04-30T02:47:03.556Z,9.27
2018-04-30T02:48:03.531Z,9.30
2018-04-30T02:49:03.507Z,9.28
2018-04-30T02:50:03.484Z,9.23
2018-04-30T02:51:03.466Z,9.15
2018-04-30T02:52:04.191Z,9.34
2018-04-30T02:53:03.419Z,9.53
2018-04-30T02:54:03.396Z,9.57
2018-04-30T02:55:03.373Z,9.63
2018-04-30T02:56:03.348Z,9.38
2018-04-30T02:57:03.325Z,9.48
2018-04-30T02:58:03.302Z,9.53
2018-04-30T02:59:03.279Z,9.60
2018-04-30T03:00:03.257Z,9.46
2018-04-30T03:01:03.236Z,9.43
2018-04-30T03:02:03.210Z,9.18
2018-04-30T03:03:03.188Z,9.28
2018-04-30T03:04:03.165Z,9.25
2018-04-30T03:05:03.145Z,9.40
2018-04-30T03:06:03.119Z,9.34
2018-04-30T03:07:03.095Z,9.25
2018-04-30T03:08:03.103Z,9.23
2018-04-30T03:09:03.052Z,9.21
2018-04-30T03:10:03.029Z,9.25
2018-04-30T03:11:03.011Z,9.49
2018-04-30T03:12:02.982Z,9.27
2018-04-30T03:13:02.960Z,9.60
2018-04-30T03:14:02.937Z,9.48
2018-04-30T03:15:02.915Z,9.57
2018-04-30T03:16:02.892Z,9.48
2018-04-30T03:17:02.869Z,9.45
2018-04-30T03:18:02.847Z,9.40
2018-04-30T03:19:02.824Z,9.34
2018-04-30T03:20:02.801Z,9.48
2018-04-30T03:21:02.777Z,9.53
2018-04-30T03:22:02.756Z,9.56
2018-04-30T03:23:02.732Z,9.48
2018-04-30T03:24:04.215Z,9.60
2018-04-30T03:25:02.687Z,9.45
2018-04-30T03:26:02.663Z,9.53
2018-04-30T03:27:02.642Z,9.58
2018-04-30T03:28:02.621Z,9.39
2018-04-30T03:29:02.596Z,9.57
2018-04-30T03:30:02.577Z,9.60
2018-04-30T03:31:02.559Z,9.50
2018-04-30T03:32:02.528Z,9.42
2018-04-30T03:33:02.507Z,9.58
2018-04-30T03:34:02.485Z,9.68
2018-04-30T03:35:02.459Z,9.53
2018-04-30T03:36:02.444Z,9.61
2018-04-30T03:37:02.415Z,9.68
2018-04-30T03:38:02.395Z,9.70
2018-04-30T03:39:02.374Z,9.73
2018-04-30T03:40:02.346Z,9.57
2018-04-30T03:41:02.323Z,9.68
2018-04-30T03:42:02.307Z,9.58
2018-04-30T03:43:02.279Z,9.75
2018-04-30T03:44:02.255Z,9.57
2018-04-30T03:45:02.231Z,9.45
2018-04-30T03:46:02.209Z,9.38
2018-04-30T03:47:02.188Z,9.24
2018-04-30T03:48:02.164Z,9.12
2018-04-30T03:49:02.140Z,9.23
2018-04-30T03:50:02.118Z,9.21
2018-04-30T03:51:02.099Z,9.25
2018-04-30T03:52:02.076Z,9.25
2018-04-30T03:53:02.049Z,9.32
2018-04-30T03:54:02.078Z,9.27
2018-04-30T03:55:02.006Z,9.16
2018-04-30T03:56:01.983Z,9.25
2018-04-30T03:57:01.958Z,9.04
2018-04-30T03:58:01.937Z,9.01
2018-04-30T03:59:01.915Z,9.06
2018-04-30T04:00:01.895Z,9.13
2018-04-30T04:01:01.869Z,9.01
2018-04-30T04:02:01.845Z,8.97
2018-04-30T04:03:01.873Z,8.94
2018-04-30T04:04:01.800Z,9.04
2018-04-30T04:05:01.777Z,9.56
2018-04-30T04:06:01.754Z,9.50
2018-04-30T04:07:01.732Z,9.38
2018-04-30T04:08:01.709Z,9.38
2018-04-30T04:09:01.684Z,9.31
2018-04-30T04:10:01.668Z,9.25
2018-04-30T04:11:01.640Z,9.04
2018-04-30T04:12:01.618Z,9.18
2018-04-30T04:13:01.592Z,9.15
2018-04-30T04:14:01.636Z,9.20
2018-04-30T04:15:01.548Z,9.06
2018-04-30T04:16:01.525Z,9.05
2018-04-30T04:17:01.501Z,9.01
2018-04-30T04:18:01.479Z,9.06
2018-04-30T04:19:01.455Z,9.01
2018-04-30T04:20:01.506Z,9.25
2018-04-30T04:21:01.411Z,9.15
2018-04-30T04:22:01.387Z,9.24
2018-04-30T04:23:01.365Z,9.83
2018-04-30T04:24:01.341Z,9.86
2018-04-30T04:25:01.321Z,9.86
2018-04-30T04:26:01.296Z,9.82
2018-04-30T04:27:01.273Z,9.93
2018-04-30T04:28:01.251Z,9.86
2018-04-30T04:29:01.229Z,9.82
2018-04-30T04:30:01.203Z,9.86
2018-04-30T04:31:01.180Z,9.86
2018-04-30T04:32:01.158Z,9.70
2018-04-30T04:33:01.134Z,9.81
2018-04-30T04:34:01.113Z,9.78
2018-04-30T04:35:01.090Z,9.70
2018-04-30T04:36:01.066Z,9.76
2018-04-30T04:37:01.044Z,9.85
2018-04-30T04:38:01.021Z,9.63
2018-04-30T04:39:00.998Z,9.45
2018-04-30T04:40:00.975Z,9.67
2018-04-30T04:41:00.953Z,9.49
2018-04-30T04:42:00.929Z,9.56
2018-04-30T04:43:00.907Z,9.46
2018-04-30T04:44:00.884Z,9.56
2018-04-30T04:45:00.862Z,9.79
2018-04-30T04:46:00.839Z,9.71
2018-04-30T04:47:00.816Z,9.83
2018-04-30T04:48:00.793Z,9.91
2018-04-30T04:49:00.771Z,9.94
2018-04-30T04:50:00.747Z,9.99
2018-04-30T04:51:00.725Z,10.03
2018-04-30T04:52:00.701Z,9.61
2018-04-30T04:53:00.678Z,9.75
2018-04-30T04:54:00.655Z,9.60
2018-04-30T04:55:00.633Z,9.71
2018-04-30T04:56:00.611Z,9.71
2018-04-30T04:57:00.588Z,9.71
2018-04-30T04:58:00.568Z,9.68
2018-04-30T04:59:00.543Z,9.68
2018-04-30T05:00:00.519Z,9.78
2018-04-30T05:01:01.247Z,9.60
2018-04-30T05:02:00.476Z,9.63
2018-04-30T05:03:00.451Z,9.61
2018-04-30T05:04:00.429Z,9.60
2018-04-30T05:05:00.405Z,9.58
2018-04-30T05:06:00.383Z,9.67
2018-04-30T05:07:00.361Z,9.58
2018-04-30T05:08:00.337Z,9.57
2018-04-30T05:09:00.313Z,9.53
2018-04-30T05:10:00.293Z,9.61
2018-04-30T05:11:00.308Z,9.56
2018-04-30T05:12:00.246Z,9.50
2018-04-30T05:13:00.224Z,9.53
2018-04-30T05:14:00.200Z,9.56
2018-04-30T05:15:00.177Z,9.67
2018-04-30T05:16:00.155Z,9.75
2018-04-30T05:17:00.131Z,9.76
2018-04-30T05:18:00.109Z,9.67
2018-04-30T05:19:00.088Z,9.79
2018-04-30T05:20:00.064Z,9.68
2018-04-30T05:21:00.052Z,9.71
2018-04-30T05:22:00.019Z,9.70
2018-04-30T05:23:00.004Z,9.67
2018-04-30T05:23:59.976Z,9.66
2018-04-30T05:24:59.951Z,9.68
2018-04-30T05:25:59.928Z,9.67
2018-04-30T05:26:59.906Z,9.71
2018-04-30T05:27:59.887Z,9.68
2018-04-30T05:28:59.859Z,9.71
2018-04-30T05:29:59.838Z,9.75
2018-04-30T05:30:59.814Z,9.70
2018-04-30T05:31:59.791Z,9.64
2018-04-30T05:32:59.769Z,9.70
2018-04-30T05:33:59.746Z,9.70
2018-04-30T05:34:59.727Z,9.81
2018-04-30T05:35:59.703Z,9.75
2018-04-30T05:36:59.677Z,9.89
2018-04-30T05:37:59.656Z,9.86
2018-04-30T05:38:59.632Z,9.76
2018-04-30T05:39:59.611Z,9.83
2018-04-30T05:40:59.589Z,9.94
2018-04-30T05:41:59.567Z,9.97
2018-04-30T05:42:59.546Z,9.88
2018-04-30T05:43:59.521Z,9.86
2018-04-30T05:44:59.498Z,9.82
2018-04-30T05:45:59.477Z,9.88
2018-04-30T05:46:59.455Z,9.83
2018-04-30T05:47:59.442Z,9.75
2018-04-30T05:48:59.408Z,9.83
2018-04-30T05:50:00.138Z,9.79
2018-04-30T05:50:59.364Z,9.86
2018-04-30T05:51:59.342Z,10.14
2018-04-30T05:52:59.323Z,10.14
2018-04-30T05:53:59.297Z,10.24
2018-04-30T05:54:59.275Z,10.25
2018-04-30T05:55:59.253Z,10.34
2018-04-30T05:56:59.231Z,10.53
2018-04-30T05:57:59.218Z,10.53
2018-04-30T05:58:59.186Z,10.51
2018-04-30T05:59:59.166Z,10.52
2018-04-30T06:00:59.142Z,10.46
2018-04-30T06:01:59.121Z,10.59
2018-04-30T06:02:59.098Z,10.60
2018-04-30T06:03:59.084Z,10.68
2018-04-30T06:04:59.054Z,10.73
2018-04-30T06:05:59.033Z,10.70
2018-04-30T06:06:59.010Z,10.74
2018-04-30T06:07:58.990Z,10.70
2018-04-30T06:08:58.970Z,10.73
2018-04-30T06:09:58.944Z,10.71
2018-04-30T06:10:58.925Z,10.70
2018-04-30T06:11:58.903Z,10.70
2018-04-30T06:12:58.879Z,10.71
2018-04-30T06:13:58.857Z,10.68
2018-04-30T06:14:58.837Z,10.83
2018-04-30T06:15:59.567Z,10.76
2018-04-30T06:16:58.794Z,10.76
2018-04-30T06:17:58.773Z,10.86
2018-04-30T06:18:58.750Z,10.98
2018-04-30T06:19:58.729Z,10.89
2018-04-30T06:20:58.707Z,10.96
2018-04-30T06:21:58.685Z,10.98
2018-04-30T06:22:58.664Z,10.81
2018-04-30T06:23:58.642Z,10.73
2018-04-30T06:24:58.622Z,10.80
2018-04-30T06:25:58.599Z,10.71
2018-04-30T06:26:58.583Z,10.74
2018-04-30T06:27:58.556Z,10.74
2018-04-30T06:28:58.533Z,10.84
2018-04-30T06:29:58.512Z,10.91
2018-04-30T06:30:58.492Z,10.94
2018-04-30T06:31:58.470Z,10.94
2018-04-30T06:32:58.447Z,10.96
2018-04-30T06:33:58.427Z,11.10
2018-04-30T06:34:58.404Z,11.09
2018-04-30T06:35:58.383Z,11.09
2018-04-30T06:36:58.367Z,11.24
2018-04-30T06:37:58.339Z,11.27
2018-04-30T06:38:58.318Z,11.27
2018-04-30T06:39:58.296Z,11.24
2018-04-30T06:40:58.273Z,11.20
2018-04-30T06:41:58.252Z,11.17
2018-04-30T06:43:00.484Z,11.14
2018-04-30T06:43:58.210Z,11.31
2018-04-30T06:44:58.188Z,11.35
2018-04-30T06:45:58.166Z,11.28
2018-04-30T06:46:58.147Z,11.19
2018-04-30T06:47:58.122Z,11.29
2018-04-30T06:48:58.100Z,11.39
2018-04-30T06:49:58.081Z,11.44
2018-04-30T06:50:58.058Z,11.52
2018-04-30T06:51:58.036Z,11.47
2018-04-30T06:52:58.014Z,11.46
2018-04-30T06:53:57.993Z,11.38
2018-04-30T06:54:57.971Z,11.32
2018-04-30T06:55:57.955Z,11.25
2018-04-30T06:56:57.928Z,11.34
2018-04-30T06:57:57.907Z,11.35
2018-04-30T06:58:57.889Z,11.49
2018-04-30T07:00:02.366Z,11.34
2018-04-30T07:00:57.841Z,11.47
2018-04-30T07:01:57.820Z,11.57
2018-04-30T07:02:57.798Z,11.56
2018-04-30T07:03:57.776Z,11.68
2018-04-30T07:04:57.753Z,11.67
2018-04-30T07:06:00.734Z,11.61
2018-04-30T07:06:57.711Z,11.59
2018-04-30T07:07:57.688Z,11.64
2018-04-30T07:08:57.665Z,11.71
2018-04-30T07:09:57.644Z,11.83
2018-04-30T07:10:57.622Z,11.72
2018-04-30T07:11:57.602Z,11.65
2018-04-30T07:12:57.578Z,11.70
2018-04-30T07:13:57.559Z,11.68
2018-04-30T07:14:57.536Z,11.71
2018-04-30T07:15:57.513Z,11.94
2018-04-30T07:16:57.494Z,11.94
2018-04-30T07:17:57.471Z,12.06
2018-04-30T07:18:57.449Z,12.06
2018-04-30T07:19:57.429Z,12.11
2018-04-30T07:20:57.403Z,12.16
2018-04-30T07:21:57.382Z,12.11
2018-04-30T07:22:57.361Z,12.01
2018-04-30T07:23:57.338Z,11.83
2018-04-30T07:24:57.317Z,11.97
2018-04-30T07:25:57.294Z,12.05
2018-04-30T07:26:57.273Z,12.05
2018-04-30T07:27:57.251Z,12.05
2018-04-30T07:28:57.228Z,12.09
2018-04-30T07:29:57.206Z,12.26
2018-04-30T07:30:57.185Z,12.39
2018-04-30T07:31:57.168Z,12.27
2018-04-30T07:32:57.140Z,12.38
2018-04-30T07:33:57.205Z,12.44
2018-04-30T07:34:57.097Z,12.51
2018-04-30T07:35:57.075Z,12.37
2018-04-30T07:36:57.052Z,12.37
2018-04-30T07:37:57.032Z,12.60
2018-04-30T07:38:57.010Z,12.41
2018-04-30T07:39:56.987Z,12.52
2018-04-30T07:40:56.964Z,12.70
2018-04-30T07:41:56.943Z,12.81
2018-04-30T07:42:56.923Z,12.87
2018-04-30T07:43:57.651Z,12.97
2018-04-30T07:44:56.877Z,12.97
2018-04-30T07:45:56.857Z,12.84
2018-04-30T07:46:56.835Z,12.88
2018-04-30T07:47:56.813Z,12.64
2018-04-30T07:48:56.791Z,12.54
2018-04-30T07:49:56.769Z,12.52
2018-04-30T07:50:56.748Z,12.64
2018-04-30T07:51:56.730Z,12.62
2018-04-30T07:52:56.709Z,12.59
2018-04-30T07:53:56.684Z,12.74
2018-04-30T07:54:56.669Z,12.85
2018-04-30T07:55:56.640Z,12.82
2018-04-30T07:56:56.618Z,12.81
2018-04-30T07:57:56.598Z,12.95
2018-04-30T07:58:56.579Z,12.96
2018-04-30T07:59:56.554Z,12.99
2018-04-30T08:00:56.532Z,13.02
2018-04-30T08:01:56.511Z,12.96
2018-04-30T08:02:56.491Z,13.03
2018-04-30T08:03:56.468Z,13.11
2018-04-30T08:04:56.451Z,13.12
2018-04-30T08:05:56.425Z,13.15
2018-04-30T08:06:56.404Z,13.00
2018-04-30T08:07:56.384Z,12.96
2018-04-30T08:08:56.362Z,12.96
2018-04-30T08:09:56.339Z,13.02
2018-04-30T08:10:56.318Z,13.02
2018-04-30T08:11:56.297Z,13.14
2018-04-30T08:12:56.277Z,12.93
2018-04-30T08:13:56.255Z,12.97
2018-04-30T08:14:56.261Z,12.77
2018-04-30T08:15:56.962Z,12.64
2018-04-30T08:16:56.189Z,12.79
2018-04-30T08:17:56.168Z,12.84
2018-04-30T08:18:56.147Z,12.71
2018-04-30T08:19:56.132Z,12.59
2018-04-30T08:20:56.103Z,12.79
2018-04-30T08:21:56.081Z,12.75
2018-04-30T08:22:56.059Z,12.87
2018-04-30T08:23:56.039Z,12.81
2018-04-30T08:24:56.016Z,12.74
2018-04-30T08:25:55.995Z,12.69
2018-04-30T08:27:00.478Z,12.81
2018-04-30T08:27:55.952Z,12.77
2018-04-30T08:28:55.929Z,12.74
2018-04-30T08:29:55.908Z,12.78
2018-04-30T08:30:55.887Z,12.74
2018-04-30T08:31:55.864Z,12.66
2018-04-30T08:32:55.842Z,12.67
2018-04-30T08:33:55.820Z,12.64
2018-04-30T08:34:55.800Z,12.82
2018-04-30T08:35:55.778Z,12.67
2018-04-30T08:36:55.755Z,12.84
2018-04-30T08:37:55.734Z,13.02
2018-04-30T08:38:55.713Z,13.24
2018-04-30T08:39:55.692Z,13.54
2018-04-30T08:40:55.668Z,13.54
2018-04-30T08:41:55.647Z,13.56
2018-04-30T08:42:55.628Z,13.79
2018-04-30T08:43:55.604Z,13.74
2018-04-30T08:44:55.582Z,13.49
2018-04-30T08:45:55.561Z,13.59
2018-04-30T08:46:55.540Z,13.49
2018-04-30T08:47:55.520Z,13.74
2018-04-30T08:48:57.000Z,13.88
2018-04-30T08:49:55.476Z,13.96
2018-04-30T08:50:55.453Z,13.99
2018-04-30T08:51:55.432Z,14.12
2018-04-30T08:52:55.410Z,14.14
2018-04-30T08:53:55.389Z,13.98
2018-04-30T08:54:57.621Z,13.95
2018-04-30T08:55:55.353Z,14.04
2018-04-30T08:56:55.326Z,13.99
2018-04-30T08:57:55.306Z,13.98
2018-04-30T08:58:55.285Z,13.87
2018-04-30T08:59:55.267Z,13.84
2018-04-30T09:00:58.244Z,13.69
2018-04-30T09:01:55.221Z,13.88
2018-04-30T09:02:55.268Z,14.04
2018-04-30T09:03:55.179Z,13.94
2018-04-30T09:04:55.158Z,13.87
2018-04-30T09:05:55.136Z,13.87
2018-04-30T09:06:55.119Z,13.79
2018-04-30T09:07:55.098Z,13.74
2018-04-30T09:08:55.074Z,13.47
2018-04-30T09:09:55.052Z,13.58
2018-04-30T09:10:55.033Z,13.62
2018-04-30T09:11:55.012Z,13.43
2018-04-30T09:12:54.990Z,13.46
2018-04-30T09:13:54.968Z,13.49
2018-04-30T09:14:54.993Z,13.51
2018-04-30T09:15:54.927Z,13.25
2018-04-30T09:16:54.905Z,13.38
2018-04-30T09:17:55.635Z,13.52
2018-04-30T09:18:54.863Z,13.46
2018-04-30T09:19:54.842Z,13.44
2018-04-30T09:20:54.820Z,13.55
2018-04-30T09:21:54.799Z,13.71
2018-04-30T09:22:54.778Z,13.59
2018-04-30T09:23:54.836Z,13.56
2018-04-30T09:24:54.735Z,13.55
2018-04-30T09:25:54.714Z,13.74
2018-04-30T09:26:54.693Z,13.83
2018-04-30T09:27:54.674Z,13.71
2018-04-30T09:28:54.651Z,13.71
2018-04-30T09:29:54.631Z,13.71
2018-04-30T09:30:54.610Z,13.73
2018-04-30T09:31:54.590Z,13.73
2018-04-30T09:32:54.566Z,13.84
2018-04-30T09:33:54.552Z,14.04
2018-04-30T09:34:54.557Z,14.10
2018-04-30T09:35:54.505Z,14.06
2018-04-30T09:36:54.481Z,14.06
2018-04-30T09:37:54.463Z,13.87
2018-04-30T09:38:54.446Z,13.88
2018-04-30T09:39:54.423Z,13.96
2018-04-30T09:40:54.410Z,13.99
2018-04-30T09:41:54.380Z,13.84
2018-04-30T09:42:54.358Z,13.73
2018-04-30T09:43:54.337Z,13.73
2018-04-30T09:44:54.316Z,13.77
2018-04-30T09:45:54.296Z,13.89
2018-04-30T09:46:54.275Z,13.74
2018-04-30T09:47:54.255Z,13.74
2018-04-30T09:48:54.231Z,13.71
2018-04-30T09:49:54.962Z,13.76
2018-04-30T09:50:54.191Z,13.83
2018-04-30T09:51:54.174Z,13.94
2018-04-30T09:52:54.152Z,13.95
2018-04-30T09:53:54.132Z,13.99
2018-04-30T09:54:54.107Z,14.01
2018-04-30T09:55:54.094Z,13.96
2018-04-30T09:56:54.069Z,13.98
2018-04-30T09:57:54.193Z,14.20
2018-04-30T09:58:54.025Z,14.01
2018-04-30T09:59:54.006Z,13.94
2018-04-30T10:00:53.981Z,14.07
2018-04-30T10:01:53.962Z,14.13
2018-04-30T10:02:53.941Z,14.20
2018-04-30T10:03:53.919Z,14.21
2018-04-30T10:04:53.898Z,14.24
2018-04-30T10:05:53.879Z,13.96
2018-04-30T10:06:53.856Z,14.14
2018-04-30T10:07:53.836Z,14.28
2018-04-30T10:08:53.814Z,14.32
2018-04-30T10:09:53.795Z,14.27
2018-04-30T10:10:53.774Z,14.24
2018-04-30T10:11:53.754Z,14.24
2018-04-30T10:12:53.735Z,14.27
2018-04-30T10:13:53.711Z,14.32
2018-04-30T10:14:53.692Z,14.43
2018-04-30T10:15:53.672Z,14.35
2018-04-30T10:16:53.652Z,14.34
2018-04-30T10:17:53.700Z,14.42
2018-04-30T10:18:53.612Z,14.28
2018-04-30T10:19:53.590Z,14.28
2018-04-30T10:20:53.568Z,14.42
2018-04-30T10:21:53.549Z,14.31
2018-04-30T10:22:53.527Z,14.20
2018-04-30T10:23:53.588Z,14.37
2018-04-30T10:24:53.487Z,14.34
2018-04-30T10:25:53.466Z,14.31
2018-04-30T10:26:53.445Z,14.28
2018-04-30T10:27:53.424Z,14.34
2018-04-30T10:28:53.404Z,14.44
2018-04-30T10:29:53.384Z,14.39
2018-04-30T10:30:53.364Z,14.52
2018-04-30T10:31:53.342Z,14.57
2018-04-30T10:32:53.322Z,14.43
2018-04-30T10:33:53.301Z,14.32
2018-04-30T10:34:53.280Z,14.46
2018-04-30T10:35:53.259Z,14.52
2018-04-30T10:36:53.240Z,14.69
2018-04-30T10:37:53.304Z,14.93
2018-04-30T10:38:53.196Z,15.13
2018-04-30T10:39:53.176Z,15.27
2018-04-30T10:40:53.160Z,15.33
2018-04-30T10:41:53.134Z,15.30
2018-04-30T10:42:53.113Z,15.33
2018-04-30T10:43:53.095Z,15.27
2018-04-30T10:44:53.073Z,15.45
2018-04-30T10:45:53.131Z,15.36
2018-04-30T10:46:53.031Z,15.42
2018-04-30T10:47:53.013Z,15.54
2018-04-30T10:48:52.990Z,15.64
2018-04-30T10:49:52.971Z,15.75
2018-04-30T10:50:52.950Z,15.92
2018-04-30T10:51:52.931Z,16.37
2018-04-30T10:52:52.910Z,16.56
2018-04-30T10:53:52.890Z,16.34
2018-04-30T10:54:52.868Z,15.68
2018-04-30T10:55:52.848Z,15.79
2018-04-30T10:56:52.827Z,16.03
2018-04-30T10:57:52.809Z,16.00
2018-04-30T10:58:53.539Z,16.33
2018-04-30T10:59:52.770Z,16.49
2018-04-30T11:00:52.749Z,16.04
2018-04-30T11:01:52.728Z,15.96
2018-04-30T11:02:52.710Z,15.92
2018-04-30T11:03:52.691Z,15.92
2018-04-30T11:04:52.670Z,16.14
2018-04-30T11:05:52.649Z,16.31
2018-04-30T11:06:52.634Z,16.14
2018-04-30T11:07:52.611Z,15.96
2018-04-30T11:08:52.590Z,16.07
2018-04-30T11:09:52.570Z,16.07
2018-04-30T11:10:52.551Z,15.89
2018-04-30T11:11:52.531Z,15.88
2018-04-30T11:12:52.517Z,16.11
2018-04-30T11:13:52.492Z,16.50
2018-04-30T11:14:52.473Z,16.44
2018-04-30T11:15:52.453Z,16.65
2018-04-30T11:16:52.432Z,16.73
2018-04-30T11:17:52.414Z,16.98
2018-04-30T11:18:52.395Z,17.03
2018-04-30T11:19:52.377Z,16.96
2018-04-30T11:20:52.356Z,16.63
2018-04-30T11:21:52.335Z,16.38
2018-04-30T11:22:52.317Z,16.27
2018-04-30T11:23:52.298Z,16.04
2018-04-30T11:24:52.278Z,16.16
2018-04-30T11:25:52.257Z,16.60
2018-04-30T11:26:52.239Z,16.68
2018-04-30T11:27:52.221Z,16.31
2018-04-30T11:28:52.238Z,16.16
2018-04-30T11:29:52.194Z,16.16
2018-04-30T11:30:52.162Z,16.14
2018-04-30T11:31:52.141Z,16.25
2018-04-30T11:32:52.122Z,16.22
2018-04-30T11:33:52.106Z,15.92
2018-04-30T11:34:52.086Z,15.94
2018-04-30T11:35:52.065Z,16.01
2018-04-30T11:36:52.044Z,16.01
2018-04-30T11:37:52.030Z,15.92
2018-04-30T11:38:52.006Z,15.89
2018-04-30T11:39:51.990Z,15.93
2018-04-30T11:40:52.718Z,15.86
2018-04-30T11:41:51.952Z,15.76
2018-04-30T11:42:51.929Z,15.81
2018-04-30T11:43:51.912Z,15.76
2018-04-30T11:44:51.892Z,15.76
2018-04-30T11:45:51.874Z,15.51
2018-04-30T11:46:51.853Z,15.45
2018-04-30T11:47:51.833Z,15.43
2018-04-30T11:48:51.815Z,15.54
2018-04-30T11:49:51.794Z,15.61
2018-04-30T11:50:51.776Z,15.49
2018-04-30T11:51:52.506Z,15.45
2018-04-30T11:52:51.736Z,15.30
2018-04-30T11:53:51.717Z,15.35
2018-04-30T11:54:51.698Z,15.36
2018-04-30T11:55:51.680Z,15.27
2018-04-30T11:56:51.658Z,15.28
2018-04-30T11:57:51.639Z,15.20
2018-04-30T11:58:51.622Z,15.27
2018-04-30T11:59:51.602Z,15.17
2018-04-30T12:00:51.582Z,15.30
2018-04-30T12:01:51.562Z,15.02
2018-04-30T12:02:51.583Z,14.91
2018-04-30T12:03:51.527Z,14.91
2018-04-30T12:04:51.529Z,14.71
2018-04-30T12:05:51.486Z,14.50
2018-04-30T12:06:51.465Z,14.32
2018-04-30T12:07:51.447Z,14.34
2018-04-30T12:08:51.427Z,14.17
2018-04-30T12:09:51.406Z,14.19
2018-04-30T12:10:51.388Z,13.99
2018-04-30T12:11:51.372Z,14.02
2018-04-30T12:12:51.347Z,13.77
2018-04-30T12:13:51.330Z,13.80
2018-04-30T12:14:51.310Z,13.69
2018-04-30T12:15:51.291Z,13.67
2018-04-30T12:16:51.268Z,13.70
2018-04-30T12:17:51.248Z,13.63
2018-04-30T12:18:51.230Z,13.77
2018-04-30T12:19:51.209Z,13.76
2018-04-30T12:20:51.194Z,13.80
2018-04-30T12:21:51.172Z,13.74
2018-04-30T12:22:51.151Z,13.81
2018-04-30T12:23:51.130Z,13.84
2018-04-30T12:24:51.111Z,13.71
2018-04-30T12:25:51.091Z,13.79
2018-04-30T12:26:51.072Z,13.84
2018-04-30T12:27:51.052Z,13.79
2018-04-30T12:28:51.031Z,13.79
2018-04-30T12:29:51.039Z,13.74
2018-04-30T12:30:50.992Z,13.63
2018-04-30T12:31:50.972Z,13.62
2018-04-30T12:32:50.950Z,13.71
2018-04-30T12:33:50.932Z,13.63
2018-04-30T12:34:50.911Z,13.77
2018-04-30T12:35:50.893Z,13.69
2018-04-30T12:36:50.872Z,13.71
2018-04-30T12:37:50.851Z,13.71
2018-04-30T12:38:50.833Z,13.70
2018-04-30T12:39:50.812Z,13.83
2018-04-30T12:40:50.792Z,13.80
2018-04-30T12:41:50.772Z,13.84
2018-04-30T12:42:50.753Z,13.84
2018-04-30T12:43:50.737Z,13.81
2018-04-30T12:44:50.712Z,13.73
2018-04-30T12:45:50.692Z,13.61
2018-04-30T12:46:50.673Z,13.62
2018-04-30T12:47:50.654Z,13.55
2018-04-30T12:48:50.632Z,13.43
2018-04-30T12:49:50.662Z,13.38
2018-04-30T12:50:50.654Z,13.30
2018-04-30T12:51:50.573Z,13.22
2018-04-30T12:52:50.554Z,13.04
2018-04-30T12:53:50.532Z,12.89
2018-04-30T12:54:50.516Z,12.88
2018-04-30T12:55:50.492Z,12.79
2018-04-30T12:56:50.471Z,12.56
2018-04-30T12:57:50.451Z,12.64
2018-04-30T12:58:50.431Z,12.51
2018-04-30T12:59:51.160Z,12.44